createdAt,value
2023-02-19T00:02:11.656Z,13.10
2023-02-19T00:04:38.859Z,13.70
2023-02-19T00:07:05.847Z,13.40
2023-02-19T00:09:32.818Z,13.10
2023-02-19T00:12:00.956Z,13.30
2023-02-19T00:14:27.991Z,13.20
2023-02-19T00:16:54.968Z,14.90
2023-02-19T00:19:22.258Z,14.60
2023-02-19T00:21:52.874Z,15.70
2023-02-19T00:24:21.430Z,13.20
2023-02-19T00:26:49.157Z,14.60
2023-02-19T00:29:21.744Z,13.80
2023-02-19T00:31:49.938Z,13.20
2023-02-19T00:34:17.104Z,13.20
2023-02-19T00:36:44.674Z,13.20
2023-02-19T00:39:18.192Z,13.10
2023-02-19T00:41:46.442Z,14.40
2023-02-19T00:44:14.858Z,14.10
2023-02-19T00:46:46.167Z,13.10
2023-02-19T00:49:19.427Z,14.50
2023-02-19T00:51:46.955Z,13.00
2023-02-19T00:54:14.716Z,13.40
2023-02-19T00:56:42.017Z,13.00
2023-02-19T00:59:10.145Z,13.00
2023-02-19T01:01:37.598Z,14.20
2023-02-19T01:04:06.566Z,13.20
2023-02-19T01:06:34.692Z,13.00
2023-02-19T01:09:02.534Z,14.00
2023-02-19T01:11:29.549Z,13.40
2023-02-19T01:14:00.660Z,13.10
2023-02-19T01:16:28.616Z,13.90
2023-02-19T01:18:57.719Z,13.10
2023-02-19T01:21:27.734Z,13.10
2023-02-19T01:23:55.748Z,14.70
2023-02-19T01:26:29.938Z,14.00
2023-02-19T01:28:58.398Z,13.30
2023-02-19T01:31:26.103Z,14.00
2023-02-19T01:34:02.065Z,13.20
2023-02-19T01:36:33.480Z,14.80
2023-02-19T01:39:05.163Z,15.50
2023-02-19T01:41:37.912Z,13.20
2023-02-19T01:44:28.562Z,15.50
2023-02-19T01:46:57.712Z,13.20
2023-02-19T01:49:31.970Z,13.80
2023-02-19T01:51:58.944Z,15.60
2023-02-19T01:54:32.429Z,14.80
2023-02-19T01:57:04.507Z,13.20
2023-02-19T01:59:33.763Z,13.20
2023-02-19T02:02:01.496Z,13.80
2023-02-19T02:04:33.603Z,13.30
2023-02-19T02:07:24.511Z,13.20
2023-02-19T02:10:11.726Z,13.20
2023-02-19T02:12:38.825Z,13.30
2023-02-19T02:15:07.004Z,13.20
2023-02-19T02:18:02.598Z,13.20
2023-02-19T02:21:03.848Z,13.80
2023-02-19T02:24:00.250Z,13.20
2023-02-19T02:27:14.148Z,13.50
2023-02-19T02:30:00.944Z,13.20
2023-02-19T02:33:01.732Z,14.10
2023-02-19T02:35:39.557Z,13.20
2023-02-19T02:38:11.621Z,13.20
2023-02-19T02:40:43.432Z,13.20
2023-02-19T02:43:13.501Z,14.20
2023-02-19T02:45:41.679Z,13.20
2023-02-19T02:48:34.866Z,13.20
2023-02-19T02:51:31.190Z,13.20
2023-02-19T02:54:41.808Z,13.10
2023-02-19T02:57:15.007Z,13.10
2023-02-19T03:00:09.639Z,13.80
2023-02-19T03:02:38.069Z,12.90
2023-02-19T03:05:38.225Z,12.80
2023-02-19T03:08:46.717Z,12.80
2023-02-19T03:11:32.823Z,12.60
2023-02-19T03:14:36.954Z,12.60
2023-02-19T03:17:37.686Z,11.80
2023-02-19T03:20:13.936Z,13.70
2023-02-19T03:22:45.980Z,12.30
2023-02-19T03:25:46.628Z,14.60
2023-02-19T03:28:42.988Z,12.20
2023-02-19T03:31:17.029Z,12.20
2023-02-19T03:33:50.442Z,13.80
2023-02-19T03:36:25.689Z,14.10
2023-02-19T03:39:17.403Z,12.10
2023-02-19T03:42:11.177Z,12.20
2023-02-19T03:45:16.515Z,12.10
2023-02-19T03:48:02.550Z,12.10
2023-02-19T03:50:52.104Z,12.10
2023-02-19T03:53:34.888Z,13.70
2023-02-19T03:56:19.210Z,12.10
2023-02-19T03:59:05.391Z,13.70
2023-02-19T04:01:56.516Z,12.10
2023-02-19T04:04:50.911Z,12.20
2023-02-19T04:07:18.658Z,12.10
2023-02-19T04:09:50.345Z,14.00
2023-02-19T04:12:22.958Z,12.00
2023-02-19T04:15:01.771Z,12.00
2023-02-19T04:17:44.133Z,12.00
2023-02-19T04:20:14.503Z,12.90
2023-02-19T04:22:42.232Z,11.90
2023-02-19T04:25:09.700Z,12.10
2023-02-19T04:27:40.187Z,11.90
2023-02-19T04:30:11.711Z,14.50
2023-02-19T04:32:38.764Z,11.90
2023-02-19T04:35:06.308Z,12.60
2023-02-19T04:37:33.233Z,11.90
2023-02-19T04:40:00.192Z,11.90
2023-02-19T04:42:27.276Z,12.00
2023-02-19T04:44:54.271Z,11.90
2023-02-19T04:47:21.452Z,12.90
2023-02-19T04:49:48.399Z,12.00
2023-02-19T04:52:15.658Z,13.50
2023-02-19T04:54:42.868Z,12.00
2023-02-19T04:57:09.869Z,12.00
2023-02-19T04:59:36.931Z,12.60
2023-02-19T05:02:03.967Z,12.90
2023-02-19T05:04:31.132Z,12.50
2023-02-19T05:06:59.016Z,11.90
2023-02-19T05:09:25.918Z,12.60
2023-02-19T05:11:52.920Z,12.00
2023-02-19T05:14:19.906Z,13.30
2023-02-19T05:16:46.989Z,12.80
2023-02-19T05:19:14.142Z,12.60
2023-02-19T05:21:41.108Z,13.00
2023-02-19T05:24:09.520Z,13.90
2023-02-19T05:26:36.731Z,11.70
2023-02-19T05:29:04.287Z,11.70
2023-02-19T05:31:33.686Z,11.80
2023-02-19T05:34:00.715Z,11.70
2023-02-19T05:36:27.818Z,12.10
2023-02-19T05:38:57.425Z,12.30
2023-02-19T05:41:29.982Z,11.60
2023-02-19T05:43:58.341Z,11.60
2023-02-19T05:46:29.737Z,13.30
2023-02-19T05:49:00.517Z,11.60
2023-02-19T05:51:27.995Z,11.60
2023-02-19T05:53:56.883Z,12.60
2023-02-19T05:56:35.611Z,11.50
2023-02-19T05:59:25.492Z,11.50
2023-02-19T06:01:54.764Z,11.50
2023-02-19T06:04:22.298Z,11.60
2023-02-19T06:06:49.932Z,11.90
2023-02-19T06:09:17.082Z,12.20
2023-02-19T06:11:44.628Z,11.50
2023-02-19T06:14:14.104Z,11.40
2023-02-19T06:16:41.712Z,11.40
2023-02-19T06:19:09.057Z,11.40
2023-02-19T06:21:36.262Z,11.80
2023-02-19T06:24:08.238Z,11.90
2023-02-19T06:26:35.870Z,11.40
2023-02-19T06:29:02.899Z,11.40
2023-02-19T06:31:30.104Z,11.30
2023-02-19T06:33:57.115Z,11.50
2023-02-19T06:36:24.462Z,12.50
2023-02-19T06:38:51.784Z,12.90
2023-02-19T06:41:18.862Z,12.30
2023-02-19T06:43:46.595Z,11.30
2023-02-19T06:46:14.144Z,11.90
2023-02-19T06:48:43.467Z,13.10
2023-02-19T06:51:19.558Z,12.70
2023-02-19T06:53:46.699Z,12.00
2023-02-19T06:56:35.591Z,11.60
2023-02-19T06:59:07.128Z,11.40
2023-02-19T07:01:36.210Z,11.50
2023-02-19T07:04:04.858Z,11.40
2023-02-19T07:06:33.675Z,11.50
2023-02-19T07:09:01.446Z,11.50
2023-02-19T07:11:33.697Z,13.10
2023-02-19T07:14:03.744Z,12.80
2023-02-19T07:16:31.313Z,12.20
2023-02-19T07:19:00.514Z,13.70
2023-02-19T07:21:29.375Z,12.00
2023-02-19T07:23:57.325Z,12.60
2023-02-19T07:26:24.750Z,11.60
2023-02-19T07:28:52.489Z,12.60
2023-02-19T07:31:23.010Z,11.60
2023-02-19T07:33:50.494Z,12.30
2023-02-19T07:36:20.633Z,12.30
2023-02-19T07:38:47.944Z,13.40
2023-02-19T07:41:14.872Z,11.60
2023-02-19T07:43:41.954Z,11.80
2023-02-19T07:46:13.108Z,11.50
2023-02-19T07:48:44.263Z,13.80
2023-02-19T07:51:19.188Z,11.50
2023-02-19T07:53:50.304Z,12.60
2023-02-19T07:56:18.467Z,11.40
2023-02-19T07:58:46.295Z,11.80
2023-02-19T08:01:40.689Z,13.20
2023-02-19T08:04:22.999Z,12.70
2023-02-19T08:06:49.968Z,11.90
2023-02-19T08:09:16.889Z,13.30
2023-02-19T08:12:02.815Z,11.30
2023-02-19T08:14:29.870Z,13.50
2023-02-19T08:16:56.877Z,11.30
2023-02-19T08:19:24.324Z,11.30
2023-02-19T08:21:51.277Z,12.90
2023-02-19T08:24:18.289Z,11.40
2023-02-19T08:26:45.393Z,12.30
2023-02-19T08:29:12.398Z,11.40
2023-02-19T08:31:39.648Z,11.40
2023-02-19T08:34:06.969Z,11.90
2023-02-19T08:36:33.896Z,11.50
2023-02-19T08:39:00.917Z,11.90
2023-02-19T08:41:28.229Z,11.50
2023-02-19T08:43:55.311Z,11.50
2023-02-19T08:46:22.740Z,11.80
2023-02-19T08:48:50.243Z,12.90
2023-02-19T08:51:17.228Z,11.80
2023-02-19T08:53:44.274Z,11.60
2023-02-19T08:56:17.418Z,11.60
2023-02-19T08:58:44.783Z,11.90
2023-02-19T09:01:16.260Z,13.40
2023-02-19T09:03:43.537Z,11.70
2023-02-19T09:06:19.820Z,13.90
2023-02-19T09:08:47.156Z,12.20
2023-02-19T09:11:15.000Z,11.90
2023-02-19T09:13:43.234Z,12.40
2023-02-19T09:16:11.264Z,12.00
2023-02-19T09:18:38.460Z,13.30
2023-02-19T09:21:06.800Z,14.20
2023-02-19T09:23:36.585Z,11.80
2023-02-19T09:26:07.554Z,13.70
2023-02-19T09:28:35.288Z,11.80
2023-02-19T09:31:08.356Z,11.80
2023-02-19T09:33:35.781Z,11.90
2023-02-19T09:36:04.510Z,11.90
2023-02-19T09:38:31.576Z,11.90
2023-02-19T09:41:05.840Z,12.70
2023-02-19T09:43:33.852Z,12.00
2023-02-19T09:46:29.517Z,12.10
2023-02-19T09:49:05.271Z,12.10
2023-02-19T09:51:39.902Z,12.10
2023-02-19T09:54:25.538Z,12.30
2023-02-19T09:56:56.131Z,12.30
2023-02-19T09:59:44.612Z,12.30
2023-02-19T10:02:24.844Z,12.40
2023-02-19T10:04:53.664Z,12.40
2023-02-19T10:07:33.166Z,13.30
2023-02-19T10:10:22.671Z,12.60
2023-02-19T10:12:55.827Z,13.20
2023-02-19T10:15:36.273Z,14.70
2023-02-19T10:18:05.582Z,12.60
2023-02-19T10:20:33.369Z,12.70
2023-02-19T10:23:11.807Z,12.70
2023-02-19T10:25:58.907Z,12.70
2023-02-19T10:28:34.301Z,12.80
2023-02-19T10:31:05.893Z,12.70
2023-02-19T10:33:33.238Z,12.80
2023-02-19T10:36:07.523Z,12.80
2023-02-19T10:38:47.653Z,12.80
2023-02-19T10:41:20.811Z,12.80
2023-02-19T10:44:06.582Z,14.20
2023-02-19T10:46:43.689Z,15.10
2023-02-19T10:49:36.068Z,12.80
2023-02-19T10:52:21.585Z,12.90
2023-02-19T10:54:56.769Z,13.60
2023-02-19T10:57:37.764Z,12.80
2023-02-19T11:00:27.658Z,12.70
2023-02-19T11:03:22.684Z,12.60
2023-02-19T11:06:09.013Z,12.60
2023-02-19T11:08:59.651Z,12.50
2023-02-19T11:11:35.491Z,14.20
2023-02-19T11:14:24.854Z,12.50
2023-02-19T11:16:56.549Z,12.70
2023-02-19T11:19:42.549Z,14.00
2023-02-19T11:22:33.614Z,12.70
2023-02-19T11:25:06.578Z,13.00
2023-02-19T11:27:34.157Z,12.90
2023-02-19T11:30:38.808Z,13.00
2023-02-19T11:33:19.815Z,13.10
2023-02-19T11:35:48.434Z,13.20
2023-02-19T11:38:19.475Z,13.30
2023-02-19T11:40:50.682Z,14.30
2023-02-19T11:43:54.926Z,13.50
2023-02-19T11:46:46.461Z,13.50
2023-02-19T11:49:39.001Z,13.60
2023-02-19T11:52:18.356Z,14.30
2023-02-19T11:55:14.627Z,13.70
2023-02-19T11:57:52.996Z,14.90
2023-02-19T12:00:31.266Z,14.30
2023-02-19T12:03:29.480Z,13.70
2023-02-19T12:07:10.059Z,13.80
2023-02-19T12:09:55.669Z,13.80
2023-02-19T12:12:48.857Z,13.90
2023-02-19T12:15:25.256Z,15.60
2023-02-19T12:18:32.682Z,14.00
2023-02-19T12:21:34.460Z,14.00
2023-02-19T12:25:15.890Z,14.00
2023-02-19T12:28:05.368Z,14.10
2023-02-19T12:30:32.314Z,14.10
2023-02-19T12:33:25.238Z,14.10
2023-02-19T12:36:27.254Z,14.90
2023-02-19T12:39:12.920Z,14.10
2023-02-19T12:42:18.808Z,14.10
2023-02-19T12:45:02.954Z,14.10
2023-02-19T12:47:40.891Z,14.10
2023-02-19T12:50:27.103Z,14.60
2023-02-19T12:53:37.493Z,14.20
2023-02-19T12:56:26.124Z,14.20
2023-02-19T12:59:05.167Z,15.20
2023-02-19T13:01:48.706Z,14.10
2023-02-19T13:04:43.345Z,14.10
2023-02-19T13:07:30.999Z,14.10
2023-02-19T13:10:47.477Z,14.10
2023-02-19T13:13:31.934Z,14.10
2023-02-19T13:16:18.637Z,14.10
2023-02-19T13:18:54.393Z,14.20
2023-02-19T13:21:45.631Z,15.10
2023-02-19T13:24:39.036Z,14.30
2023-02-19T13:27:41.954Z,14.30
2023-02-19T13:30:48.866Z,14.30
2023-02-19T13:33:32.138Z,14.30
2023-02-19T13:36:10.450Z,14.20
2023-02-19T13:38:44.845Z,14.20
2023-02-19T13:41:49.658Z,14.10
2023-02-19T13:44:25.505Z,14.10
2023-02-19T13:46:53.384Z,14.20
2023-02-19T13:49:24.466Z,14.10
2023-02-19T13:52:29.437Z,14.10
2023-02-19T13:55:47.201Z,14.00
2023-02-19T13:58:32.926Z,13.90
2023-02-19T14:01:07.304Z,13.80
2023-02-19T14:03:37.288Z,13.70
2023-02-19T14:06:08.369Z,13.60
2023-02-19T14:08:58.608Z,13.40
2023-02-19T14:11:44.153Z,13.40
2023-02-19T14:14:36.393Z,13.60
2023-02-19T14:17:09.270Z,13.10
2023-02-19T14:19:42.564Z,12.90
2023-02-19T14:22:45.131Z,12.80
2023-02-19T14:25:29.918Z,12.60
2023-02-19T14:28:48.235Z,12.50
2023-02-19T14:31:30.576Z,12.40
2023-02-19T14:34:27.194Z,12.30
2023-02-19T14:37:01.443Z,12.10
2023-02-19T14:39:37.902Z,12.00
2023-02-19T14:42:20.255Z,12.00
2023-02-19T14:44:53.984Z,11.90
2023-02-19T14:47:25.743Z,11.90
2023-02-19T14:49:58.423Z,11.90
2023-02-19T14:52:36.772Z,11.80
2023-02-19T14:55:19.608Z,13.50
2023-02-19T14:57:53.255Z,11.80
2023-02-19T15:00:37.520Z,11.80
2023-02-19T15:03:06.945Z,11.70
2023-02-19T15:05:36.804Z,13.30
2023-02-19T15:08:11.450Z,13.60
2023-02-19T15:10:42.619Z,12.20
2023-02-19T15:13:17.683Z,11.60
2023-02-19T15:15:46.541Z,11.70
2023-02-19T15:18:25.525Z,11.70
2023-02-19T15:21:05.629Z,11.70
2023-02-19T15:23:35.815Z,11.70
2023-02-19T15:26:04.009Z,11.60
2023-02-19T15:28:34.298Z,13.10
2023-02-19T15:31:03.241Z,13.70
2023-02-19T15:33:30.208Z,12.80
2023-02-19T15:36:04.771Z,13.40
2023-02-19T15:38:33.423Z,11.60
2023-02-19T15:41:01.122Z,11.60
2023-02-19T15:43:40.628Z,11.60
2023-02-19T15:46:23.491Z,11.60
2023-02-19T15:49:37.590Z,11.60
2023-02-19T15:52:17.409Z,11.50
2023-02-19T15:55:07.389Z,13.60
2023-02-19T15:57:47.282Z,11.50
2023-02-19T16:00:48.843Z,11.50
2023-02-19T16:03:20.986Z,11.40
2023-02-19T16:06:17.389Z,12.70
2023-02-19T16:09:03.112Z,11.40
2023-02-19T16:11:40.281Z,11.40
2023-02-19T16:14:28.002Z,11.30
2023-02-19T16:17:09.922Z,11.90
2023-02-19T16:20:02.859Z,9.40
2023-02-19T16:22:40.493Z,11.20
2023-02-19T16:25:21.624Z,11.10
2023-02-19T16:27:48.858Z,11.10
2023-02-19T16:30:25.406Z,11.00
2023-02-19T16:33:41.461Z,11.00
2023-02-19T16:36:28.809Z,11.00
2023-02-19T16:39:14.409Z,11.00
2023-02-19T16:41:41.500Z,12.20
2023-02-19T16:44:47.115Z,10.70
2023-02-19T16:47:24.493Z,12.00
2023-02-19T16:49:52.384Z,10.60
2023-02-19T16:52:19.634Z,10.50
2023-02-19T16:54:49.071Z,10.60
2023-02-19T16:57:16.588Z,10.40
2023-02-19T16:59:43.699Z,11.20
2023-02-19T17:02:20.040Z,10.40
2023-02-19T17:04:49.333Z,12.30
2023-02-19T17:07:18.385Z,10.30
2023-02-19T17:09:47.236Z,12.90
2023-02-19T17:12:17.562Z,10.40
2023-02-19T17:14:44.900Z,10.40
2023-02-19T17:17:12.247Z,10.40
2023-02-19T17:19:40.122Z,10.30
2023-02-19T17:22:08.228Z,10.40
2023-02-19T17:24:35.345Z,10.40
2023-02-19T17:29:34.240Z,10.50
2023-02-19T17:32:01.652Z,12.70
2023-02-19T17:34:28.970Z,12.50
2023-02-19T17:36:56.567Z,10.50
2023-02-19T17:39:24.517Z,10.40
2023-02-19T17:41:52.211Z,10.40
2023-02-19T17:44:20.207Z,12.60
2023-02-19T17:46:50.484Z,10.40
2023-02-19T17:49:17.610Z,10.40
2023-02-19T17:51:44.938Z,10.70
2023-02-19T17:54:12.856Z,11.30
2023-02-19T17:56:43.452Z,10.40
2023-02-19T17:59:11.226Z,10.30
2023-02-19T18:01:38.650Z,10.50
2023-02-19T18:04:06.466Z,12.50
2023-02-19T18:06:36.319Z,11.70
2023-02-19T18:09:03.959Z,10.30
2023-02-19T18:11:31.004Z,10.30
2023-02-19T18:13:59.932Z,10.30
2023-02-19T18:16:27.061Z,10.30
2023-02-19T18:18:55.282Z,11.40
2023-02-19T18:21:24.821Z,10.20
2023-02-19T18:23:52.212Z,10.20
2023-02-19T18:26:21.242Z,10.10
2023-02-19T18:28:48.336Z,10.10
2023-02-19T18:31:15.646Z,10.80
2023-02-19T18:33:46.516Z,12.00
2023-02-19T18:36:14.127Z,9.90
2023-02-19T18:38:42.221Z,9.70
2023-02-19T18:41:13.805Z,9.60
2023-02-19T18:43:42.172Z,9.60
2023-02-19T18:46:10.729Z,11.50
2023-02-19T18:48:38.666Z,8.20
2023-02-19T18:51:09.966Z,11.30
2023-02-19T18:53:37.366Z,9.10
2023-02-19T18:56:05.448Z,11.50
2023-02-19T18:58:32.620Z,9.30
2023-02-19T19:00:59.755Z,11.80
2023-02-19T19:03:30.381Z,11.90
2023-02-19T19:06:00.487Z,11.20
2023-02-19T19:08:30.382Z,11.80
2023-02-19T19:10:57.840Z,11.10
2023-02-19T19:13:25.760Z,9.10
2023-02-19T19:15:53.352Z,11.10
2023-02-19T19:18:20.779Z,10.90
2023-02-19T19:20:48.214Z,9.00
2023-02-19T19:23:15.237Z,11.50
2023-02-19T19:25:43.264Z,8.80
2023-02-19T19:28:11.240Z,8.80
2023-02-19T19:30:38.826Z,8.70
2023-02-19T19:33:06.146Z,9.80
2023-02-19T19:35:35.311Z,8.60
2023-02-19T19:38:02.316Z,8.60
2023-02-19T19:40:30.028Z,11.00
2023-02-19T19:42:57.487Z,8.60
2023-02-19T19:45:24.744Z,8.40
2023-02-19T19:47:53.063Z,8.40
2023-02-19T19:50:20.557Z,10.50
2023-02-19T19:52:48.072Z,8.30
2023-02-19T19:55:16.239Z,8.30
2023-02-19T19:57:44.054Z,8.70
2023-02-19T20:00:19.444Z,8.10
2023-02-19T20:02:47.723Z,8.10
2023-02-19T20:05:17.699Z,8.10
2023-02-19T20:07:46.397Z,8.00
2023-02-19T20:10:14.599Z,7.50
2023-02-19T20:12:41.828Z,7.90
2023-02-19T20:15:10.633Z,7.90
2023-02-19T20:17:38.005Z,7.80
2023-02-19T20:20:06.258Z,9.50
2023-02-19T20:22:33.415Z,7.80
2023-02-19T20:25:00.603Z,10.00
2023-02-19T20:27:27.642Z,7.60
2023-02-19T20:29:54.961Z,8.40
2023-02-19T20:32:22.288Z,7.50
2023-02-19T20:34:49.278Z,7.40
2023-02-19T20:37:16.388Z,9.60
2023-02-19T20:39:43.484Z,8.50
2023-02-19T20:42:10.821Z,7.20
2023-02-19T20:44:37.802Z,8.10
2023-02-19T20:47:05.265Z,8.70
2023-02-19T20:49:32.569Z,7.10
2023-02-19T20:52:05.099Z,9.50
2023-02-19T20:54:35.096Z,6.70
2023-02-19T20:57:05.518Z,7.00
2023-02-19T20:59:38.572Z,7.00
2023-02-19T21:02:14.185Z,6.60
2023-02-19T21:04:41.226Z,9.40
2023-02-19T21:07:08.166Z,6.90
2023-02-19T21:09:35.343Z,8.50
2023-02-19T21:12:02.338Z,6.80
2023-02-19T21:14:30.127Z,6.80
2023-02-19T21:17:00.311Z,6.80
2023-02-19T21:19:27.589Z,8.40
2023-02-19T21:21:54.742Z,6.70
2023-02-19T21:24:21.881Z,8.70
2023-02-19T21:26:49.104Z,6.70
2023-02-19T21:29:21.189Z,6.70
2023-02-19T21:31:54.901Z,7.40
2023-02-19T21:34:28.550Z,7.50
2023-02-19T21:36:56.966Z,8.20
2023-02-19T21:39:27.839Z,6.70
2023-02-19T21:41:55.363Z,7.30
2023-02-19T21:44:23.845Z,6.60
2023-02-19T21:46:51.435Z,6.70
2023-02-19T21:49:18.526Z,8.90
2023-02-19T21:51:48.104Z,9.40
2023-02-19T21:54:24.768Z,6.70
2023-02-19T21:56:53.875Z,6.60
2023-02-19T21:59:22.743Z,6.60
2023-02-19T22:01:50.627Z,6.60
2023-02-19T22:04:21.242Z,6.60
2023-02-19T22:06:48.479Z,9.00
2023-02-19T22:09:16.528Z,8.00
2023-02-19T22:11:43.580Z,9.10
2023-02-19T22:14:10.641Z,7.90
2023-02-19T22:16:37.872Z,7.60
2023-02-19T22:19:04.875Z,6.50
2023-02-19T22:21:32.885Z,6.50
2023-02-19T22:24:02.834Z,8.50
2023-02-19T22:26:35.307Z,8.10
2023-02-19T22:29:07.068Z,7.90
2023-02-19T22:31:35.589Z,6.50
2023-02-19T22:34:04.200Z,6.50
2023-02-19T22:36:33.793Z,6.50
2023-02-19T22:39:01.414Z,6.50
2023-02-19T22:41:29.168Z,6.50
2023-02-19T22:43:58.310Z,8.50
2023-02-19T22:46:29.309Z,8.70
2023-02-19T22:48:57.649Z,6.50
2023-02-19T22:51:25.684Z,6.40
2023-02-19T22:53:55.899Z,7.60
2023-02-19T22:56:28.124Z,8.50
2023-02-19T22:58:57.639Z,6.40
2023-02-19T23:01:25.647Z,7.50
2023-02-19T23:04:03.371Z,8.10
2023-02-19T23:06:33.683Z,6.40
2023-02-19T23:09:10.991Z,6.30
2023-02-19T23:11:39.360Z,6.30
2023-02-19T23:14:07.732Z,6.30
2023-02-19T23:16:37.983Z,6.30
2023-02-19T23:19:09.423Z,6.30
2023-02-19T23:21:36.484Z,8.40
2023-02-19T23:24:04.275Z,6.60
2023-02-19T23:26:31.411Z,6.30
2023-02-19T23:28:58.704Z,6.40
2023-02-19T23:31:26.915Z,7.90
2023-02-19T23:33:55.654Z,6.40
2023-02-19T23:36:23.915Z,7.50
2023-02-19T23:38:50.956Z,8.80
2023-02-19T23:41:19.146Z,6.40
2023-02-19T23:43:46.243Z,6.50
2023-02-19T23:46:18.167Z,6.50
2023-02-19T23:48:46.264Z,7.30
2023-02-19T23:51:13.560Z,6.60
2023-02-19T23:53:40.856Z,6.60
2023-02-19T23:56:07.917Z,6.70
2023-02-19T23:58:34.883Z,6.80
